sensor_id;sensor_type;location;lat;lon;timestamp;P1;durP1;ratioP1;P2;durP2;ratioP2
15645;SDS011;7922;43.622;1.476;2022-08-19T00:00:16;8.03;;;6.03;;
15645;SDS011;7922;43.622;1.476;2022-08-19T00:02:43;6.20;;;5.60;;
15645;SDS011;7922;43.622;1.476;2022-08-19T00:05:10;8.40;;;5.73;;
15645;SDS011;7922;43.622;1.476;2022-08-19T00:07:37;7.70;;;5.87;;
15645;SDS011;7922;43.622;1.476;2022-08-19T00:10:04;9.33;;;6.57;;
15645;SDS011;7922;43.622;1.476;2022-08-19T00:12:31;6.93;;;6.13;;
15645;SDS011;7922;43.622;1.476;2022-08-19T00:14:58;7.53;;;6.27;;
15645;SDS011;7922;43.622;1.476;2022-08-19T00:17:23;7.77;;;6.27;;
15645;SDS011;7922;43.622;1.476;2022-08-19T00:19:49;6.70;;;6.00;;
15645;SDS011;7922;43.622;1.476;2022-08-19T00:22:15;7.03;;;6.37;;
15645;SDS011;7922;43.622;1.476;2022-08-19T00:24:42;7.23;;;6.47;;
15645;SDS011;7922;43.622;1.476;2022-08-19T00:27:12;8.50;;;6.07;;
15645;SDS011;7922;43.622;1.476;2022-08-19T00:29:38;10.63;;;6.50;;
15645;SDS011;7922;43.622;1.476;2022-08-19T00:32:04;7.67;;;6.33;;
15645;SDS011;7922;43.622;1.476;2022-08-19T00:34:30;7.27;;;5.70;;
15645;SDS011;7922;43.622;1.476;2022-08-19T00:36:56;7.00;;;6.30;;
15645;SDS011;7922;43.622;1.476;2022-08-19T00:39:22;7.20;;;5.67;;
15645;SDS011;7922;43.622;1.476;2022-08-19T00:41:49;7.23;;;5.73;;
15645;SDS011;7922;43.622;1.476;2022-08-19T00:44:17;6.13;;;5.57;;
15645;SDS011;7922;43.622;1.476;2022-08-19T00:46:47;8.17;;;6.20;;
15645;SDS011;7922;43.622;1.476;2022-08-19T00:49:19;7.47;;;6.07;;
15645;SDS011;7922;43.622;1.476;2022-08-19T00:52:00;7.87;;;6.20;;
15645;SDS011;7922;43.622;1.476;2022-08-19T00:54:56;10.80;;;6.70;;
15645;SDS011;7922;43.622;1.476;2022-08-19T00:57:25;7.97;;;6.73;;
15645;SDS011;7922;43.622;1.476;2022-08-19T00:59:56;6.77;;;5.63;;
15645;SDS011;7922;43.622;1.476;2022-08-19T01:02:24;7.30;;;6.60;;
15645;SDS011;7922;43.622;1.476;2022-08-19T01:04:51;7.73;;;6.93;;
15645;SDS011;7922;43.622;1.476;2022-08-19T01:07:17;7.67;;;5.80;;
15645;SDS011;7922;43.622;1.476;2022-08-19T01:09:43;7.43;;;6.57;;
15645;SDS011;7922;43.622;1.476;2022-08-19T01:12:08;6.73;;;6.13;;
15645;SDS011;7922;43.622;1.476;2022-08-19T01:14:34;7.50;;;6.50;;
15645;SDS011;7922;43.622;1.476;2022-08-19T01:17:02;8.63;;;6.50;;
15645;SDS011;7922;43.622;1.476;2022-08-19T01:19:30;6.77;;;6.17;;
15645;SDS011;7922;43.622;1.476;2022-08-19T01:22:08;7.67;;;6.97;;
15645;SDS011;7922;43.622;1.476;2022-08-19T01:24:39;8.63;;;6.43;;
15645;SDS011;7922;43.622;1.476;2022-08-19T01:27:05;7.20;;;6.50;;
15645;SDS011;7922;43.622;1.476;2022-08-19T01:29:31;9.43;;;6.83;;
15645;SDS011;7922;43.622;1.476;2022-08-19T01:31:57;10.63;;;6.53;;
15645;SDS011;7922;43.622;1.476;2022-08-19T01:34:23;9.60;;;6.60;;
15645;SDS011;7922;43.622;1.476;2022-08-19T01:36:49;8.13;;;6.17;;
15645;SDS011;7922;43.622;1.476;2022-08-19T01:39:17;7.33;;;6.63;;
15645;SDS011;7922;43.622;1.476;2022-08-19T01:41:45;8.83;;;6.67;;
15645;SDS011;7922;43.622;1.476;2022-08-19T01:44:11;8.90;;;7.13;;
15645;SDS011;7922;43.622;1.476;2022-08-19T01:46:37;8.13;;;7.07;;
15645;SDS011;7922;43.622;1.476;2022-08-19T01:49:04;9.57;;;7.00;;
15645;SDS011;7922;43.622;1.476;2022-08-19T01:51:30;8.20;;;7.40;;
15645;SDS011;7922;43.622;1.476;2022-08-19T01:53:56;7.00;;;6.30;;
15645;SDS011;7922;43.622;1.476;2022-08-19T01:56:23;10.07;;;6.40;;
15645;SDS011;7922;43.622;1.476;2022-08-19T01:58:51;6.97;;;6.27;;
15645;SDS011;7922;43.622;1.476;2022-08-19T02:01:24;7.67;;;6.23;;
15645;SDS011;7922;43.622;1.476;2022-08-19T02:03:49;8.33;;;6.90;;
15645;SDS011;7922;43.622;1.476;2022-08-19T02:06:16;8.37;;;7.07;;
15645;SDS011;7922;43.622;1.476;2022-08-19T02:08:42;10.70;;;6.70;;
15645;SDS011;7922;43.622;1.476;2022-08-19T02:11:17;10.40;;;7.27;;
15645;SDS011;7922;43.622;1.476;2022-08-19T02:13:47;8.70;;;6.70;;
15645;SDS011;7922;43.622;1.476;2022-08-19T02:16:14;9.90;;;6.60;;
15645;SDS011;7922;43.622;1.476;2022-08-19T02:18:42;8.70;;;6.77;;
15645;SDS011;7922;43.622;1.476;2022-08-19T02:21:07;7.60;;;6.30;;
15645;SDS011;7922;43.622;1.476;2022-08-19T02:23:33;8.00;;;7.07;;
15645;SDS011;7922;43.622;1.476;2022-08-19T02:25:59;10.03;;;7.00;;
15645;SDS011;7922;43.622;1.476;2022-08-19T02:28:24;7.93;;;6.33;;
15645;SDS011;7922;43.622;1.476;2022-08-19T02:30:50;7.77;;;6.27;;
15645;SDS011;7922;43.622;1.476;2022-08-19T02:33:16;8.93;;;6.80;;
15645;SDS011;7922;43.622;1.476;2022-08-19T02:35:45;8.23;;;6.30;;
15645;SDS011;7922;43.622;1.476;2022-08-19T02:38:11;9.93;;;7.10;;
15645;SDS011;7922;43.622;1.476;2022-08-19T02:41:00;9.10;;;6.67;;
15645;SDS011;7922;43.622;1.476;2022-08-19T02:43:28;7.73;;;6.33;;
15645;SDS011;7922;43.622;1.476;2022-08-19T02:45:55;11.37;;;7.10;;
15645;SDS011;7922;43.622;1.476;2022-08-19T02:48:22;9.00;;;7.00;;
15645;SDS011;7922;43.622;1.476;2022-08-19T02:50:49;8.23;;;6.63;;
15645;SDS011;7922;43.622;1.476;2022-08-19T02:53:21;8.77;;;6.70;;
15645;SDS011;7922;43.622;1.476;2022-08-19T02:55:48;8.67;;;6.57;;
15645;SDS011;7922;43.622;1.476;2022-08-19T02:58:15;8.13;;;6.90;;
15645;SDS011;7922;43.622;1.476;2022-08-19T03:00:42;10.07;;;6.93;;
15645;SDS011;7922;43.622;1.476;2022-08-19T03:03:16;12.70;;;6.97;;
15645;SDS011;7922;43.622;1.476;2022-08-19T03:05:42;8.27;;;6.13;;
15645;SDS011;7922;43.622;1.476;2022-08-19T03:08:08;9.53;;;6.63;;
15645;SDS011;7922;43.622;1.476;2022-08-19T03:10:41;7.97;;;6.67;;
15645;SDS011;7922;43.622;1.476;2022-08-19T03:13:09;8.77;;;6.30;;
15645;SDS011;7922;43.622;1.476;2022-08-19T03:15:38;9.17;;;6.63;;
15645;SDS011;7922;43.622;1.476;2022-08-19T03:18:05;10.17;;;6.53;;
15645;SDS011;7922;43.622;1.476;2022-08-19T03:20:31;12.27;;;6.57;;
15645;SDS011;7922;43.622;1.476;2022-08-19T03:22:56;7.67;;;6.27;;
15645;SDS011;7922;43.622;1.476;2022-08-19T03:25:22;8.50;;;6.40;;
15645;SDS011;7922;43.622;1.476;2022-08-19T03:27:48;8.33;;;6.40;;
15645;SDS011;7922;43.622;1.476;2022-08-19T03:30:13;8.50;;;6.37;;
15645;SDS011;7922;43.622;1.476;2022-08-19T03:32:39;10.17;;;7.53;;
15645;SDS011;7922;43.622;1.476;2022-08-19T03:35:05;11.13;;;6.70;;
15645;SDS011;7922;43.622;1.476;2022-08-19T03:37:31;9.67;;;6.43;;
15645;SDS011;7922;43.622;1.476;2022-08-19T03:39:57;9.07;;;7.13;;
15645;SDS011;7922;43.622;1.476;2022-08-19T03:42:23;7.43;;;6.70;;
15645;SDS011;7922;43.622;1.476;2022-08-19T03:44:48;7.87;;;6.87;;
15645;SDS011;7922;43.622;1.476;2022-08-19T03:47:14;12.50;;;6.80;;
15645;SDS011;7922;43.622;1.476;2022-08-19T03:49:40;7.87;;;6.67;;
15645;SDS011;7922;43.622;1.476;2022-08-19T03:52:06;7.67;;;6.67;;
15645;SDS011;7922;43.622;1.476;2022-08-19T03:54:33;10.80;;;6.70;;
15645;SDS011;7922;43.622;1.476;2022-08-19T03:56:59;8.40;;;6.83;;
15645;SDS011;7922;43.622;1.476;2022-08-19T03:59:30;9.13;;;6.37;;
15645;SDS011;7922;43.622;1.476;2022-08-19T04:01:58;10.40;;;6.90;;
15645;SDS011;7922;43.622;1.476;2022-08-19T04:04:26;8.03;;;5.93;;
15645;SDS011;7922;43.622;1.476;2022-08-19T04:06:52;10.33;;;6.60;;
15645;SDS011;7922;43.622;1.476;2022-08-19T04:09:18;9.40;;;6.10;;
15645;SDS011;7922;43.622;1.476;2022-08-19T04:11:46;7.67;;;6.33;;
15645;SDS011;7922;43.622;1.476;2022-08-19T04:14:19;11.43;;;6.80;;
15645;SDS011;7922;43.622;1.476;2022-08-19T04:16:47;10.53;;;6.23;;
15645;SDS011;7922;43.622;1.476;2022-08-19T04:19:14;8.77;;;6.63;;
15645;SDS011;7922;43.622;1.476;2022-08-19T04:21:43;8.60;;;6.20;;
15645;SDS011;7922;43.622;1.476;2022-08-19T04:24:13;10.10;;;6.10;;
15645;SDS011;7922;43.622;1.476;2022-08-19T04:26:40;10.00;;;6.03;;
15645;SDS011;7922;43.622;1.476;2022-08-19T04:29:08;9.67;;;6.30;;
15645;SDS011;7922;43.622;1.476;2022-08-19T04:31:36;9.27;;;6.70;;
15645;SDS011;7922;43.622;1.476;2022-08-19T04:34:06;8.90;;;6.30;;
15645;SDS011;7922;43.622;1.476;2022-08-19T04:36:34;12.07;;;6.53;;
15645;SDS011;7922;43.622;1.476;2022-08-19T04:39:05;11.90;;;5.90;;
15645;SDS011;7922;43.622;1.476;2022-08-19T04:41:36;11.10;;;6.63;;
15645;SDS011;7922;43.622;1.476;2022-08-19T04:44:20;8.00;;;6.07;;
15645;SDS011;7922;43.622;1.476;2022-08-19T04:46:46;8.53;;;6.23;;
15645;SDS011;7922;43.622;1.476;2022-08-19T04:49:14;8.63;;;6.50;;
15645;SDS011;7922;43.622;1.476;2022-08-19T04:51:43;10.60;;;5.87;;
15645;SDS011;7922;43.622;1.476;2022-08-19T04:54:10;10.37;;;6.27;;
15645;SDS011;7922;43.622;1.476;2022-08-19T04:56:37;7.87;;;5.60;;
15645;SDS011;7922;43.622;1.476;2022-08-19T04:59:04;7.83;;;5.53;;
15645;SDS011;7922;43.622;1.476;2022-08-19T05:01:31;10.30;;;6.13;;
15645;SDS011;7922;43.622;1.476;2022-08-19T05:03:59;9.73;;;6.10;;
15645;SDS011;7922;43.622;1.476;2022-08-19T05:06:26;6.83;;;5.43;;
15645;SDS011;7922;43.622;1.476;2022-08-19T05:08:53;7.70;;;6.10;;
15645;SDS011;7922;43.622;1.476;2022-08-19T05:11:21;9.07;;;5.87;;
15645;SDS011;7922;43.622;1.476;2022-08-19T05:13:49;7.87;;;5.47;;
15645;SDS011;7922;43.622;1.476;2022-08-19T05:16:17;8.53;;;5.70;;
15645;SDS011;7922;43.622;1.476;2022-08-19T05:18:44;7.70;;;5.87;;
15645;SDS011;7922;43.622;1.476;2022-08-19T05:21:29;11.60;;;6.40;;
15645;SDS011;7922;43.622;1.476;2022-08-19T05:24:13;10.93;;;5.77;;
15645;SDS011;7922;43.622;1.476;2022-08-19T05:26:41;12.40;;;6.07;;
15645;SDS011;7922;43.622;1.476;2022-08-19T05:29:11;11.75;;;6.60;;
15645;SDS011;7922;43.622;1.476;2022-08-19T05:31:38;8.03;;;5.47;;
15645;SDS011;7922;43.622;1.476;2022-08-19T05:34:04;9.20;;;5.77;;
15645;SDS011;7922;43.622;1.476;2022-08-19T05:36:34;8.53;;;5.27;;
15645;SDS011;7922;43.622;1.476;2022-08-19T05:39:05;8.30;;;5.47;;
15645;SDS011;7922;43.622;1.476;2022-08-19T05:41:32;9.20;;;5.20;;
15645;SDS011;7922;43.622;1.476;2022-08-19T05:44:01;7.63;;;5.80;;
15645;SDS011;7922;43.622;1.476;2022-08-19T05:46:28;6.23;;;4.93;;
15645;SDS011;7922;43.622;1.476;2022-08-19T05:48:54;7.73;;;5.67;;
15645;SDS011;7922;43.622;1.476;2022-08-19T05:51:21;6.73;;;4.90;;
15645;SDS011;7922;43.622;1.476;2022-08-19T05:53:48;7.00;;;5.07;;
15645;SDS011;7922;43.622;1.476;2022-08-19T05:56:14;12.00;;;5.60;;
15645;SDS011;7922;43.622;1.476;2022-08-19T05:58:41;9.80;;;6.03;;
15645;SDS011;7922;43.622;1.476;2022-08-19T06:01:10;11.27;;;5.37;;
15645;SDS011;7922;43.622;1.476;2022-08-19T06:03:37;6.00;;;5.03;;
15645;SDS011;7922;43.622;1.476;2022-08-19T06:06:04;7.63;;;5.10;;
15645;SDS011;7922;43.622;1.476;2022-08-19T06:08:32;7.67;;;5.80;;
15645;SDS011;7922;43.622;1.476;2022-08-19T06:14:06;8.57;;;5.00;;
15645;SDS011;7922;43.622;1.476;2022-08-19T06:16:35;9.53;;;5.30;;
15645;SDS011;7922;43.622;1.476;2022-08-19T06:19:04;7.00;;;4.97;;
15645;SDS011;7922;43.622;1.476;2022-08-19T06:21:32;7.40;;;5.13;;
15645;SDS011;7922;43.622;1.476;2022-08-19T06:24:00;8.93;;;5.40;;
15645;SDS011;7922;43.622;1.476;2022-08-19T06:26:27;6.07;;;5.47;;
15645;SDS011;7922;43.622;1.476;2022-08-19T06:28:53;8.80;;;6.23;;
15645;SDS011;7922;43.622;1.476;2022-08-19T06:31:22;9.07;;;5.73;;
15645;SDS011;7922;43.622;1.476;2022-08-19T06:33:50;8.70;;;5.63;;
15645;SDS011;7922;43.622;1.476;2022-08-19T06:36:27;8.83;;;5.70;;
15645;SDS011;7922;43.622;1.476;2022-08-19T06:39:00;6.53;;;5.20;;
15645;SDS011;7922;43.622;1.476;2022-08-19T06:41:28;5.87;;;5.10;;
15645;SDS011;7922;43.622;1.476;2022-08-19T06:43:55;7.30;;;5.13;;
15645;SDS011;7922;43.622;1.476;2022-08-19T06:46:25;9.17;;;4.80;;
15645;SDS011;7922;43.622;1.476;2022-08-19T06:48:54;6.70;;;4.97;;
15645;SDS011;7922;43.622;1.476;2022-08-19T06:51:24;12.33;;;5.53;;
15645;SDS011;7922;43.622;1.476;2022-08-19T06:53:51;10.40;;;4.87;;
15645;SDS011;7922;43.622;1.476;2022-08-19T06:56:19;8.73;;;4.93;;
15645;SDS011;7922;43.622;1.476;2022-08-19T06:58:51;7.97;;;4.77;;
15645;SDS011;7922;43.622;1.476;2022-08-19T07:01:18;7.23;;;4.67;;
15645;SDS011;7922;43.622;1.476;2022-08-19T07:03:44;7.20;;;5.03;;
15645;SDS011;7922;43.622;1.476;2022-08-19T07:06:16;7.77;;;4.73;;
15645;SDS011;7922;43.622;1.476;2022-08-19T07:08:43;8.50;;;4.80;;
15645;SDS011;7922;43.622;1.476;2022-08-19T07:11:12;4.80;;;4.40;;
15645;SDS011;7922;43.622;1.476;2022-08-19T07:13:40;6.03;;;4.23;;
15645;SDS011;7922;43.622;1.476;2022-08-19T07:16:11;7.77;;;5.00;;
15645;SDS011;7922;43.622;1.476;2022-08-19T07:18:38;8.67;;;4.87;;
15645;SDS011;7922;43.622;1.476;2022-08-19T07:21:05;8.83;;;4.77;;
15645;SDS011;7922;43.622;1.476;2022-08-19T07:23:33;8.57;;;4.13;;
15645;SDS011;7922;43.622;1.476;2022-08-19T07:26:04;9.67;;;5.10;;
15645;SDS011;7922;43.622;1.476;2022-08-19T07:28:34;7.83;;;4.47;;
15645;SDS011;7922;43.622;1.476;2022-08-19T07:31:06;8.13;;;4.63;;
15645;SDS011;7922;43.622;1.476;2022-08-19T07:33:34;7.70;;;4.40;;
15645;SDS011;7922;43.622;1.476;2022-08-19T07:36:04;7.07;;;4.33;;
15645;SDS011;7922;43.622;1.476;2022-08-19T07:38:31;8.17;;;4.73;;
15645;SDS011;7922;43.622;1.476;2022-08-19T07:40:58;6.47;;;4.80;;
15645;SDS011;7922;43.622;1.476;2022-08-19T07:43:25;7.73;;;4.80;;
15645;SDS011;7922;43.622;1.476;2022-08-19T07:45:52;5.37;;;4.40;;
15645;SDS011;7922;43.622;1.476;2022-08-19T07:48:23;10.00;;;4.37;;
15645;SDS011;7922;43.622;1.476;2022-08-19T07:50:52;8.83;;;4.43;;
15645;SDS011;7922;43.622;1.476;2022-08-19T07:53:22;6.87;;;4.70;;
15645;SDS011;7922;43.622;1.476;2022-08-19T07:55:49;7.80;;;4.20;;
15645;SDS011;7922;43.622;1.476;2022-08-19T07:58:20;8.50;;;4.80;;
15645;SDS011;7922;43.622;1.476;2022-08-19T08:00:49;8.77;;;4.30;;
15645;SDS011;7922;43.622;1.476;2022-08-19T08:03:17;5.10;;;4.33;;
15645;SDS011;7922;43.622;1.476;2022-08-19T08:05:45;4.50;;;3.90;;
15645;SDS011;7922;43.622;1.476;2022-08-19T08:08:29;5.77;;;4.37;;
15645;SDS011;7922;43.622;1.476;2022-08-19T08:11:02;6.53;;;4.07;;
15645;SDS011;7922;43.622;1.476;2022-08-19T08:13:29;8.27;;;4.17;;
15645;SDS011;7922;43.622;1.476;2022-08-19T08:15:58;7.17;;;4.03;;
15645;SDS011;7922;43.622;1.476;2022-08-19T08:18:24;7.60;;;4.27;;
15645;SDS011;7922;43.622;1.476;2022-08-19T08:20:50;8.97;;;4.50;;
15645;SDS011;7922;43.622;1.476;2022-08-19T08:23:16;7.37;;;4.87;;
15645;SDS011;7922;43.622;1.476;2022-08-19T08:25:50;6.90;;;4.13;;
15645;SDS011;7922;43.622;1.476;2022-08-19T08:28:25;7.30;;;4.03;;
15645;SDS011;7922;43.622;1.476;2022-08-19T08:30:53;8.27;;;4.37;;
15645;SDS011;7922;43.622;1.476;2022-08-19T08:33:21;6.57;;;3.60;;
15645;SDS011;7922;43.622;1.476;2022-08-19T08:35:49;8.40;;;4.20;;
15645;SDS011;7922;43.622;1.476;2022-08-19T08:38:15;5.60;;;3.97;;
15645;SDS011;7922;43.622;1.476;2022-08-19T08:40:47;7.30;;;4.53;;
15645;SDS011;7922;43.622;1.476;2022-08-19T08:43:25;7.80;;;4.00;;
15645;SDS011;7922;43.622;1.476;2022-08-19T08:46:08;8.77;;;4.40;;
15645;SDS011;7922;43.622;1.476;2022-08-19T08:54:08;4.90;;;4.23;;
15645;SDS011;7922;43.622;1.476;2022-08-19T08:56:40;6.80;;;4.17;;
15645;SDS011;7922;43.622;1.476;2022-08-19T08:59:26;8.63;;;5.20;;
15645;SDS011;7922;43.622;1.476;2022-08-19T09:01:59;8.07;;;4.47;;
15645;SDS011;7922;43.622;1.476;2022-08-19T09:04:25;6.77;;;4.30;;
15645;SDS011;7922;43.622;1.476;2022-08-19T09:09:46;7.53;;;4.30;;
15645;SDS011;7922;43.622;1.476;2022-08-19T09:12:38;4.87;;;3.90;;
15645;SDS011;7922;43.622;1.476;2022-08-19T09:15:14;7.40;;;4.30;;
15645;SDS011;7922;43.622;1.476;2022-08-19T09:17:42;7.57;;;4.37;;
15645;SDS011;7922;43.622;1.476;2022-08-19T09:22:48;8.07;;;4.33;;
15645;SDS011;7922;43.622;1.476;2022-08-19T09:25:18;8.20;;;4.10;;
15645;SDS011;7922;43.622;1.476;2022-08-19T09:27:47;7.77;;;3.93;;
15645;SDS011;7922;43.622;1.476;2022-08-19T09:30:24;5.00;;;3.73;;
15645;SDS011;7922;43.622;1.476;2022-08-19T09:32:52;5.43;;;4.00;;
15645;SDS011;7922;43.622;1.476;2022-08-19T09:35:20;7.27;;;3.77;;
15645;SDS011;7922;43.622;1.476;2022-08-19T09:37:47;7.07;;;3.93;;
15645;SDS011;7922;43.622;1.476;2022-08-19T09:40:14;5.73;;;4.10;;
15645;SDS011;7922;43.622;1.476;2022-08-19T09:42:42;5.70;;;4.10;;
15645;SDS011;7922;43.622;1.476;2022-08-19T09:45:11;4.83;;;3.60;;
15645;SDS011;7922;43.622;1.476;2022-08-19T09:47:37;6.53;;;3.60;;
15645;SDS011;7922;43.622;1.476;2022-08-19T09:50:07;4.07;;;3.30;;
15645;SDS011;7922;43.622;1.476;2022-08-19T09:52:35;5.90;;;4.07;;
15645;SDS011;7922;43.622;1.476;2022-08-19T09:55:02;4.80;;;3.70;;
15645;SDS011;7922;43.622;1.476;2022-08-19T09:57:29;6.67;;;3.87;;
15645;SDS011;7922;43.622;1.476;2022-08-19T09:59:55;4.90;;;3.87;;
15645;SDS011;7922;43.622;1.476;2022-08-19T10:02:21;10.03;;;4.77;;
15645;SDS011;7922;43.622;1.476;2022-08-19T10:04:46;4.60;;;3.70;;
15645;SDS011;7922;43.622;1.476;2022-08-19T10:07:30;6.73;;;3.70;;
15645;SDS011;7922;43.622;1.476;2022-08-19T10:09:56;6.17;;;4.57;;
15645;SDS011;7922;43.622;1.476;2022-08-19T10:12:22;6.10;;;3.50;;
15645;SDS011;7922;43.622;1.476;2022-08-19T10:14:48;4.53;;;3.50;;
15645;SDS011;7922;43.622;1.476;2022-08-19T10:17:16;6.73;;;3.73;;
15645;SDS011;7922;43.622;1.476;2022-08-19T10:19:42;4.10;;;3.70;;
15645;SDS011;7922;43.622;1.476;2022-08-19T10:22:08;4.90;;;3.27;;
15645;SDS011;7922;43.622;1.476;2022-08-19T10:24:36;6.10;;;4.10;;
15645;SDS011;7922;43.622;1.476;2022-08-19T10:27:01;4.20;;;3.50;;
15645;SDS011;7922;43.622;1.476;2022-08-19T10:29:29;4.47;;;3.90;;
15645;SDS011;7922;43.622;1.476;2022-08-19T10:31:56;6.97;;;3.90;;
15645;SDS011;7922;43.622;1.476;2022-08-19T10:34:23;7.00;;;4.13;;
15645;SDS011;7922;43.622;1.476;2022-08-19T10:36:49;6.47;;;4.00;;
15645;SDS011;7922;43.622;1.476;2022-08-19T10:39:16;6.47;;;4.10;;
15645;SDS011;7922;43.622;1.476;2022-08-19T10:41:42;7.33;;;3.90;;
15645;SDS011;7922;43.622;1.476;2022-08-19T10:44:09;5.47;;;3.20;;
15645;SDS011;7922;43.622;1.476;2022-08-19T10:46:39;4.43;;;4.00;;
15645;SDS011;7922;43.622;1.476;2022-08-19T10:49:07;6.43;;;4.43;;
15645;SDS011;7922;43.622;1.476;2022-08-19T10:51:33;5.17;;;4.30;;
15645;SDS011;7922;43.622;1.476;2022-08-19T10:54:18;5.53;;;3.60;;
15645;SDS011;7922;43.622;1.476;2022-08-19T10:56:44;5.13;;;4.07;;
15645;SDS011;7922;43.622;1.476;2022-08-19T10:59:16;5.73;;;4.30;;
15645;SDS011;7922;43.622;1.476;2022-08-19T11:01:48;5.33;;;4.20;;
15645;SDS011;7922;43.622;1.476;2022-08-19T11:04:14;5.10;;;4.20;;
15645;SDS011;7922;43.622;1.476;2022-08-19T11:06:42;4.10;;;3.67;;
15645;SDS011;7922;43.622;1.476;2022-08-19T11:09:13;4.30;;;3.90;;
15645;SDS011;7922;43.622;1.476;2022-08-19T11:11:41;7.17;;;4.10;;
15645;SDS011;7922;43.622;1.476;2022-08-19T11:14:08;5.27;;;4.10;;
15645;SDS011;7922;43.622;1.476;2022-08-19T11:16:36;5.87;;;3.90;;
15645;SDS011;7922;43.622;1.476;2022-08-19T11:19:04;5.00;;;4.00;;
15645;SDS011;7922;43.622;1.476;2022-08-19T11:21:34;5.37;;;3.97;;
15645;SDS011;7922;43.622;1.476;2022-08-19T11:24:03;5.27;;;4.00;;
15645;SDS011;7922;43.622;1.476;2022-08-19T11:26:34;4.87;;;3.87;;
15645;SDS011;7922;43.622;1.476;2022-08-19T11:29:02;4.53;;;3.57;;
15645;SDS011;7922;43.622;1.476;2022-08-19T11:31:29;7.53;;;3.70;;
15645;SDS011;7922;43.622;1.476;2022-08-19T11:33:57;4.93;;;3.67;;
15645;SDS011;7922;43.622;1.476;2022-08-19T11:36:24;5.77;;;3.73;;
15645;SDS011;7922;43.622;1.476;2022-08-19T11:38:51;4.77;;;3.80;;
15645;SDS011;7922;43.622;1.476;2022-08-19T11:41:17;4.00;;;3.53;;
15645;SDS011;7922;43.622;1.476;2022-08-19T11:43:44;4.97;;;3.50;;
15645;SDS011;7922;43.622;1.476;2022-08-19T11:46:11;4.83;;;3.50;;
15645;SDS011;7922;43.622;1.476;2022-08-19T11:48:38;4.53;;;4.00;;
15645;SDS011;7922;43.622;1.476;2022-08-19T11:51:06;7.07;;;4.10;;
15645;SDS011;7922;43.622;1.476;2022-08-19T11:53:34;4.27;;;3.60;;
15645;SDS011;7922;43.622;1.476;2022-08-19T11:56:01;5.27;;;3.40;;
15645;SDS011;7922;43.622;1.476;2022-08-19T11:58:28;4.23;;;3.60;;
15645;SDS011;7922;43.622;1.476;2022-08-19T12:00:54;4.20;;;3.60;;
15645;SDS011;7922;43.622;1.476;2022-08-19T12:03:19;3.90;;;3.60;;
15645;SDS011;7922;43.622;1.476;2022-08-19T12:05:45;5.47;;;3.83;;
15645;SDS011;7922;43.622;1.476;2022-08-19T12:08:12;5.57;;;4.03;;
15645;SDS011;7922;43.622;1.476;2022-08-19T12:10:39;3.67;;;3.37;;
15645;SDS011;7922;43.622;1.476;2022-08-19T12:13:07;3.43;;;3.13;;
15645;SDS011;7922;43.622;1.476;2022-08-19T12:15:37;5.70;;;3.33;;
15645;SDS011;7922;43.622;1.476;2022-08-19T12:18:08;3.77;;;3.37;;
15645;SDS011;7922;43.622;1.476;2022-08-19T12:20:35;4.33;;;3.20;;
15645;SDS011;7922;43.622;1.476;2022-08-19T12:23:03;4.20;;;3.70;;
15645;SDS011;7922;43.622;1.476;2022-08-19T12:25:29;5.03;;;3.70;;
15645;SDS011;7922;43.622;1.476;2022-08-19T12:27:57;4.13;;;3.67;;
15645;SDS011;7922;43.622;1.476;2022-08-19T12:30:23;4.23;;;3.57;;
15645;SDS011;7922;43.622;1.476;2022-08-19T12:32:49;4.13;;;3.57;;
15645;SDS011;7922;43.622;1.476;2022-08-19T12:35:16;5.70;;;3.63;;
15645;SDS011;7922;43.622;1.476;2022-08-19T12:37:45;5.80;;;4.10;;
15645;SDS011;7922;43.622;1.476;2022-08-19T12:40:11;4.03;;;3.63;;
15645;SDS011;7922;43.622;1.476;2022-08-19T12:42:38;4.10;;;3.27;;
15645;SDS011;7922;43.622;1.476;2022-08-19T12:45:07;6.80;;;3.60;;
15645;SDS011;7922;43.622;1.476;2022-08-19T12:47:34;3.57;;;3.27;;
15645;SDS011;7922;43.622;1.476;2022-08-19T12:50:00;5.30;;;3.43;;
15645;SDS011;7922;43.622;1.476;2022-08-19T12:52:26;3.63;;;3.33;;
15645;SDS011;7922;43.622;1.476;2022-08-19T12:54:53;5.30;;;3.33;;
15645;SDS011;7922;43.622;1.476;2022-08-19T12:57:20;4.40;;;3.37;;
15645;SDS011;7922;43.622;1.476;2022-08-19T12:59:48;5.33;;;3.30;;
15645;SDS011;7922;43.622;1.476;2022-08-19T13:02:20;5.43;;;3.20;;
15645;SDS011;7922;43.622;1.476;2022-08-19T13:04:47;3.63;;;3.20;;
15645;SDS011;7922;43.622;1.476;2022-08-19T13:07:13;3.57;;;3.17;;
15645;SDS011;7922;43.622;1.476;2022-08-19T13:09:39;4.37;;;3.17;;
15645;SDS011;7922;43.622;1.476;2022-08-19T13:12:07;4.27;;;3.10;;
15645;SDS011;7922;43.622;1.476;2022-08-19T13:14:37;4.97;;;3.10;;
15645;SDS011;7922;43.622;1.476;2022-08-19T13:17:05;4.20;;;3.20;;
15645;SDS011;7922;43.622;1.476;2022-08-19T13:19:31;3.83;;;3.20;;
15645;SDS011;7922;43.622;1.476;2022-08-19T13:21:57;3.57;;;3.27;;
15645;SDS011;7922;43.622;1.476;2022-08-19T13:24:23;4.30;;;3.30;;
15645;SDS011;7922;43.622;1.476;2022-08-19T13:26:49;6.30;;;3.57;;
15645;SDS011;7922;43.622;1.476;2022-08-19T13:29:15;4.80;;;3.43;;
15645;SDS011;7922;43.622;1.476;2022-08-19T13:31:59;4.83;;;3.27;;
15645;SDS011;7922;43.622;1.476;2022-08-19T13:34:43;4.00;;;3.07;;
15645;SDS011;7922;43.622;1.476;2022-08-19T13:37:11;5.00;;;3.37;;
15645;SDS011;7922;43.622;1.476;2022-08-19T13:39:37;3.90;;;3.50;;
15645;SDS011;7922;43.622;1.476;2022-08-19T13:42:02;3.40;;;3.10;;
15645;SDS011;7922;43.622;1.476;2022-08-19T13:44:29;3.00;;;2.80;;
15645;SDS011;7922;43.622;1.476;2022-08-19T13:47:04;4.40;;;2.93;;
15645;SDS011;7922;43.622;1.476;2022-08-19T13:49:32;4.00;;;3.03;;
15645;SDS011;7922;43.622;1.476;2022-08-19T13:51:58;4.23;;;3.30;;
15645;SDS011;7922;43.622;1.476;2022-08-19T13:54:24;3.67;;;3.17;;
15645;SDS011;7922;43.622;1.476;2022-08-19T13:56:51;3.37;;;2.80;;
15645;SDS011;7922;43.622;1.476;2022-08-19T13:59:17;5.13;;;3.08;;
15645;SDS011;7922;43.622;1.476;2022-08-19T14:01:43;4.30;;;2.90;;
15645;SDS011;7922;43.622;1.476;2022-08-19T14:04:09;3.50;;;3.20;;
15645;SDS011;7922;43.622;1.476;2022-08-19T14:06:34;3.30;;;3.00;;
15645;SDS011;7922;43.622;1.476;2022-08-19T14:09:00;3.40;;;3.10;;
15645;SDS011;7922;43.622;1.476;2022-08-19T14:11:27;3.93;;;3.20;;
15645;SDS011;7922;43.622;1.476;2022-08-19T14:13:53;3.67;;;2.92;;
15645;SDS011;7922;43.622;1.476;2022-08-19T14:16:19;4.13;;;3.10;;
15645;SDS011;7922;43.622;1.476;2022-08-19T14:18:46;3.53;;;3.00;;
15645;SDS011;7922;43.622;1.476;2022-08-19T14:21:16;3.40;;;2.55;;
15645;SDS011;7922;43.622;1.476;2022-08-19T14:23:45;3.83;;;2.77;;
15645;SDS011;7922;43.622;1.476;2022-08-19T14:26:12;3.53;;;3.00;;
15645;SDS011;7922;43.622;1.476;2022-08-19T14:28:40;4.25;;;2.90;;
15645;SDS011;7922;43.622;1.476;2022-08-19T14:31:07;4.47;;;3.03;;
15645;SDS011;7922;43.622;1.476;2022-08-19T14:33:34;3.00;;;2.70;;
15645;SDS011;7922;43.622;1.476;2022-08-19T14:35:59;3.22;;;2.92;;
15645;SDS011;7922;43.622;1.476;2022-08-19T14:38:26;3.53;;;3.22;;
15645;SDS011;7922;43.622;1.476;2022-08-19T14:40:52;2.92;;;2.50;;
15645;SDS011;7922;43.622;1.476;2022-08-19T14:43:18;3.50;;;2.72;;
15645;SDS011;7922;43.622;1.476;2022-08-19T14:45:43;3.92;;;2.35;;
15645;SDS011;7922;43.622;1.476;2022-08-19T14:48:09;3.22;;;2.92;;
15645;SDS011;7922;43.622;1.476;2022-08-19T14:50:35;4.97;;;3.10;;
15645;SDS011;7922;43.622;1.476;2022-08-19T14:53:06;2.80;;;2.55;;
15645;SDS011;7922;43.622;1.476;2022-08-19T14:55:33;4.90;;;3.17;;
15645;SDS011;7922;43.622;1.476;2022-08-19T14:57:59;4.10;;;2.90;;
15645;SDS011;7922;43.622;1.476;2022-08-19T15:00:26;3.97;;;2.53;;
15645;SDS011;7922;43.622;1.476;2022-08-19T15:02:52;3.60;;;2.88;;
15645;SDS011;7922;43.622;1.476;2022-08-19T15:05:19;3.78;;;3.10;;
15645;SDS011;7922;43.622;1.476;2022-08-19T15:07:45;5.95;;;2.80;;
15645;SDS011;7922;43.622;1.476;2022-08-19T15:10:12;4.60;;;3.13;;
15645;SDS011;7922;43.622;1.476;2022-08-19T15:12:39;3.05;;;2.83;;
15645;SDS011;7922;43.622;1.476;2022-08-19T15:15:09;3.20;;;2.90;;
15645;SDS011;7922;43.622;1.476;2022-08-19T15:17:37;4.10;;;2.80;;
15645;SDS011;7922;43.622;1.476;2022-08-19T15:20:05;3.38;;;3.08;;